createdAt,value
2023-01-12T00:29:26.402Z,-5.55
2023-01-12T00:32:01.045Z,-5.60
2023-01-12T00:34:33.500Z,-5.54
2023-01-12T00:37:05.969Z,-5.54
2023-01-12T00:39:40.777Z,-5.47
2023-01-12T00:42:31.589Z,-5.44
2023-01-12T00:45:22.768Z,-5.41
2023-01-12T00:47:55.320Z,-5.36
2023-01-12T00:50:28.153Z,-5.33
2023-01-12T00:53:00.606Z,-5.34
2023-01-12T00:55:32.994Z,-5.36
2023-01-12T00:58:05.543Z,-5.39
2023-01-12T01:00:37.826Z,-5.44
2023-01-12T01:03:10.293Z,-5.44
2023-01-12T01:05:42.606Z,-5.46
2023-01-12T01:08:15.085Z,-5.48
2023-01-12T01:10:47.959Z,-5.52
2023-01-12T01:13:20.605Z,-5.55
2023-01-12T01:15:54.541Z,-5.55
2023-01-12T01:18:27.985Z,-5.55
2023-01-12T01:21:00.776Z,-5.53
2023-01-12T01:23:35.781Z,-5.49
2023-01-12T01:26:10.650Z,-5.55
2023-01-12T01:28:44.528Z,-5.57
2023-01-12T01:31:23.090Z,-5.52
2023-01-12T01:33:55.574Z,-5.44
2023-01-12T01:36:28.701Z,-5.36
2023-01-12T01:39:01.463Z,-5.30
2023-01-12T01:41:34.537Z,-5.23
2023-01-12T01:44:33.899Z,-5.15
2023-01-12T01:47:19.659Z,-5.14
2023-01-12T01:49:53.974Z,-5.12
2023-01-12T01:52:37.107Z,-5.08
2023-01-12T01:55:35.387Z,-5.03
2023-01-12T01:58:15.412Z,-4.99
2023-01-12T02:00:47.817Z,-5.00
2023-01-12T02:03:20.707Z,-4.99
2023-01-12T02:05:54.405Z,-5.01
2023-01-12T02:08:51.995Z,-5.01
2023-01-12T02:11:42.286Z,-5.00
2023-01-12T02:14:32.782Z,-4.92
2023-01-12T02:17:10.179Z,-4.91
2023-01-12T02:20:34.298Z,-4.95
2023-01-12T02:23:27.869Z,-4.90
2023-01-12T02:26:19.535Z,-4.92
2023-01-12T02:29:16.621Z,-4.91
2023-01-12T02:32:02.559Z,-4.89
2023-01-12T02:35:10.674Z,-4.80
2023-01-12T02:38:02.711Z,-4.80
2023-01-12T02:41:12.461Z,-4.89
2023-01-12T02:43:44.789Z,-4.99
2023-01-12T02:46:24.713Z,-5.01
2023-01-12T02:49:08.488Z,-5.01
2023-01-12T02:52:09.462Z,-5.02
2023-01-12T02:54:42.052Z,-5.02
2023-01-12T02:57:14.517Z,-5.00
2023-01-12T02:59:48.398Z,-4.99
2023-01-12T03:02:24.919Z,-4.94
2023-01-12T03:04:57.354Z,-4.92
2023-01-12T03:07:40.491Z,-4.99
2023-01-12T03:10:57.095Z,-5.06
2023-01-12T03:13:30.645Z,-5.08
2023-01-12T03:16:03.554Z,-5.04
2023-01-12T03:18:45.543Z,-5.01
2023-01-12T03:21:28.327Z,-5.00
2023-01-12T03:24:15.886Z,-5.07
2023-01-12T03:26:52.429Z,-5.09
2023-01-12T03:29:51.531Z,-5.07
2023-01-12T03:32:24.649Z,-5.08
2023-01-12T03:34:57.329Z,-5.11
2023-01-12T03:37:42.510Z,-5.11
2023-01-12T03:40:22.885Z,-5.11
2023-01-12T03:43:29.112Z,-5.08
2023-01-12T03:46:22.904Z,-5.03
2023-01-12T03:49:03.178Z,-4.99
2023-01-12T03:51:38.293Z,-5.00
2023-01-12T03:54:12.114Z,-5.00
2023-01-12T03:56:45.608Z,-4.93
2023-01-12T03:59:18.008Z,-4.87
2023-01-12T04:01:51.767Z,-4.83
2023-01-12T04:04:24.647Z,-4.81
2023-01-12T04:06:57.049Z,-4.84
2023-01-12T04:09:29.644Z,-4.83
2023-01-12T04:12:11.009Z,-4.85
2023-01-12T04:14:47.800Z,-4.79
2023-01-12T04:17:21.272Z,-4.72
2023-01-12T04:19:54.165Z,-4.67
2023-01-12T04:22:45.220Z,-4.62
2023-01-12T04:25:21.204Z,-4.59
2023-01-12T04:28:02.393Z,-4.62
2023-01-12T04:30:35.563Z,-4.65
2023-01-12T04:33:09.506Z,-4.65
2023-01-12T04:35:41.927Z,-4.62
2023-01-12T04:38:16.280Z,-4.55
2023-01-12T04:40:52.406Z,-4.56
2023-01-12T04:43:25.453Z,-4.55
2023-01-12T04:45:57.843Z,-4.55
2023-01-12T04:48:30.271Z,-4.53
2023-01-12T04:51:03.187Z,-4.54
2023-01-12T04:53:35.649Z,-4.54
2023-01-12T04:56:30.011Z,-4.54
2023-01-12T04:59:02.465Z,-4.56
2023-01-12T05:01:36.954Z,-4.53
2023-01-12T05:04:09.929Z,-4.47
2023-01-12T05:06:42.392Z,-4.45
2023-01-12T05:09:32.913Z,-4.43
2023-01-12T05:12:05.856Z,-4.44
2023-01-12T05:14:38.405Z,-4.45
2023-01-12T05:17:11.340Z,-4.44
2023-01-12T05:19:43.899Z,-4.43
2023-01-12T05:22:16.311Z,-4.48
2023-01-12T05:24:48.699Z,-4.44
2023-01-12T05:27:21.541Z,-4.39
2023-01-12T05:29:55.918Z,-4.37
2023-01-12T05:32:29.972Z,-4.38
2023-01-12T05:35:02.464Z,-4.39
2023-01-12T05:37:35.092Z,-4.37
2023-01-12T05:40:08.127Z,-4.36
2023-01-12T05:42:59.415Z,-4.35
2023-01-12T05:45:31.739Z,-4.32
2023-01-12T05:48:04.694Z,-4.31
2023-01-12T05:50:38.153Z,-4.28
2023-01-12T05:53:14.277Z,-4.27
2023-01-12T05:55:46.773Z,-4.28
2023-01-12T05:58:19.192Z,-4.27
2023-01-12T06:00:51.560Z,-4.22
2023-01-12T06:03:24.223Z,-4.20
2023-01-12T06:05:58.598Z,-4.19
2023-01-12T06:08:31.515Z,-4.18
2023-01-12T06:11:05.699Z,-4.19
2023-01-12T06:13:56.873Z,-4.18
2023-01-12T06:16:29.751Z,-4.20
2023-01-12T06:19:02.703Z,-4.16
2023-01-12T06:21:35.716Z,-4.18
2023-01-12T06:24:08.373Z,-4.17
2023-01-12T06:26:42.371Z,-4.12
2023-01-12T06:29:14.701Z,-4.09
2023-01-12T06:31:47.243Z,-4.01
2023-01-12T06:34:20.680Z,-3.97
2023-01-12T06:36:53.127Z,-3.96
2023-01-12T06:39:25.561Z,-3.94
2023-01-12T06:42:15.857Z,-3.94
2023-01-12T06:44:49.033Z,-3.90
2023-01-12T06:47:22.278Z,-3.90
2023-01-12T06:49:54.776Z,-3.90
2023-01-12T06:52:29.712Z,-3.93
2023-01-12T06:55:02.183Z,-3.92
2023-01-12T06:57:34.816Z,-3.87
2023-01-12T07:00:12.055Z,-3.85
2023-01-12T07:02:44.560Z,-3.83
2023-01-12T07:05:17.080Z,-3.83
2023-01-12T07:07:49.602Z,-3.82
2023-01-12T10:46:22.070Z,-1.87
2023-01-12T10:48:56.570Z,-1.96
2023-01-12T10:54:20.251Z,-2.07
2023-01-12T10:57:22.955Z,-2.25
2023-01-12T11:00:02.089Z,-2.37
2023-01-12T11:02:44.318Z,-2.44
2023-01-12T11:05:38.824Z,-2.49
2023-01-12T11:08:26.816Z,-2.49
2023-01-12T11:10:59.843Z,-2.51
2023-01-12T11:13:34.715Z,-2.49
2023-01-12T11:16:20.929Z,-2.54
2023-01-12T11:19:01.123Z,-2.55
2023-01-12T11:21:38.355Z,-2.54
2023-01-12T11:24:41.597Z,-2.53
2023-01-12T11:27:30.683Z,-2.47
2023-01-12T11:30:17.616Z,-2.43
2023-01-12T11:33:04.531Z,-2.35
2023-01-12T11:36:06.718Z,-2.27
2023-01-12T11:38:43.922Z,-2.27
2023-01-12T11:41:34.307Z,-2.33
2023-01-12T11:44:26.710Z,-2.37
2023-01-12T11:47:11.052Z,-2.38
2023-01-12T11:50:08.815Z,-2.33
2023-01-12T11:52:41.851Z,-2.37
2023-01-12T11:55:17.147Z,-2.36
2023-01-12T11:58:00.823Z,-2.32
2023-01-12T12:01:03.919Z,-2.33
2023-01-12T12:04:03.785Z,-2.32
2023-01-12T12:07:00.805Z,-2.32
2023-01-12T12:09:47.259Z,-2.28
2023-01-12T12:12:39.666Z,-2.25
2023-01-12T12:15:29.187Z,-2.24
2023-01-12T12:18:39.665Z,-2.31
2023-01-12T12:21:41.062Z,-2.33
2023-01-12T12:25:02.323Z,-2.28
2023-01-12T12:27:58.147Z,-2.28
2023-01-12T12:30:44.541Z,-2.28
2023-01-12T12:33:39.903Z,-2.31
2023-01-12T12:36:33.706Z,-2.36
2023-01-12T12:39:27.724Z,-2.37
2023-01-12T12:42:25.551Z,-2.36
2023-01-12T12:45:17.834Z,-2.37
2023-01-12T12:48:16.462Z,-2.44
2023-01-12T12:51:01.977Z,-2.46
2023-01-12T12:53:58.081Z,-2.43
2023-01-12T12:56:31.613Z,-2.42
2023-01-12T12:59:03.973Z,-2.43
2023-01-12T13:01:39.815Z,-2.36
2023-01-12T13:04:43.356Z,-2.28
2023-01-12T13:07:20.101Z,-2.27
2023-01-12T13:09:52.778Z,-2.25
2023-01-12T13:12:37.166Z,-2.20
2023-01-12T13:15:24.161Z,-2.18
2023-01-12T13:17:56.941Z,-2.10
2023-01-12T13:20:52.388Z,-2.05
2023-01-12T13:23:44.302Z,-2.05
2023-01-12T13:26:37.715Z,-2.12
2023-01-12T13:29:33.301Z,-2.14
2023-01-12T13:32:41.759Z,-2.17
2023-01-12T13:35:40.778Z,-2.19
2023-01-12T13:38:37.072Z,-2.21
2023-01-12T13:41:22.152Z,-2.20
2023-01-12T13:43:58.444Z,-2.17
2023-01-12T13:46:47.027Z,-2.14
2023-01-12T13:49:36.896Z,-2.14
2023-01-12T13:52:25.432Z,-2.16
2023-01-12T13:54:57.949Z,-2.19
2023-01-12T13:57:32.720Z,-2.23
2023-01-12T14:00:11.805Z,-2.23
2023-01-12T14:02:47.252Z,-2.22
2023-01-12T14:05:39.688Z,-2.24
2023-01-12T14:08:36.824Z,-2.25
2023-01-12T14:11:24.616Z,-2.28
2023-01-12T14:14:09.284Z,-2.30
2023-01-12T17:52:04.342Z,-2.55
2023-01-12T17:54:38.353Z,-2.59
2023-01-12T17:57:10.895Z,-2.58
2023-01-12T17:59:43.433Z,-2.51
2023-01-12T18:02:16.738Z,-2.47
2023-01-12T18:04:49.390Z,-2.45
2023-01-12T18:07:24.107Z,-2.46
2023-01-12T18:09:56.714Z,-2.44
2023-01-12T18:12:30.330Z,-2.42
2023-01-12T18:15:03.671Z,-2.43
2023-01-12T18:17:36.237Z,-2.40
2023-01-12T18:20:09.124Z,-2.41
2023-01-12T18:22:41.621Z,-2.45
2023-01-12T18:25:14.994Z,-2.46
2023-01-12T18:27:47.874Z,-2.43
2023-01-12T18:30:20.716Z,-2.49
2023-01-12T18:32:53.599Z,-2.50
2023-01-12T18:35:26.429Z,-2.48
2023-01-12T18:37:58.999Z,-2.44
2023-01-12T18:40:31.504Z,-2.39
2023-01-12T18:43:04.188Z,-2.41
2023-01-12T18:45:36.899Z,-2.49
2023-01-12T18:48:24.331Z,-2.53
2023-01-12T18:51:14.620Z,-2.56
2023-01-12T18:53:47.303Z,-2.57
2023-01-12T18:56:20.440Z,-2.63
2023-01-12T18:58:53.685Z,-2.66
2023-01-12T19:01:26.458Z,-2.71
2023-01-12T19:03:59.723Z,-2.73
2023-01-12T19:06:43.100Z,-2.72
2023-01-12T19:09:33.263Z,-2.66
2023-01-12T19:12:06.794Z,-2.60
2023-01-12T19:14:56.934Z,-2.60
2023-01-12T19:17:30.347Z,-2.64
2023-01-12T19:20:25.460Z,-2.67
2023-01-12T19:23:15.667Z,-2.65
2023-01-12T19:26:00.131Z,-2.66
2023-01-12T19:28:34.859Z,-2.67
2023-01-12T19:31:11.098Z,-2.65
2023-01-12T19:33:44.030Z,-2.65
2023-01-12T19:36:16.664Z,-2.69
2023-01-12T19:38:54.115Z,-2.73
2023-01-12T19:41:44.238Z,-2.72
2023-01-12T19:44:16.535Z,-2.75
2023-01-12T19:46:48.985Z,-2.72
2023-01-12T19:49:21.340Z,-2.70
2023-01-12T19:51:53.782Z,-2.68
2023-01-12T19:54:26.304Z,-2.72
2023-01-12T19:56:58.866Z,-2.68
2023-01-12T19:59:31.239Z,-2.65
2023-01-12T20:02:04.176Z,-2.70
2023-01-12T20:04:37.129Z,-2.72
2023-01-12T20:07:10.002Z,-2.70
2023-01-12T20:09:42.651Z,-2.70
2023-01-12T20:12:16.832Z,-2.77
2023-01-12T20:14:49.161Z,-2.78
2023-01-12T20:17:21.690Z,-2.73
2023-01-12T20:19:54.070Z,-2.70
2023-01-12T20:22:27.855Z,-2.64
2023-01-12T20:25:01.744Z,-2.68
2023-01-12T20:30:25.294Z,-2.69
2023-01-12T20:32:52.924Z,-2.65
2023-01-12T20:35:25.647Z,-2.60
2023-01-12T20:37:58.106Z,-2.56
2023-01-12T20:40:30.473Z,-2.51
2023-01-12T20:43:02.968Z,-2.53
2023-01-12T20:45:35.554Z,-2.57
2023-01-12T20:48:11.318Z,-2.57
2023-01-12T20:50:46.403Z,-2.60
2023-01-12T20:53:19.374Z,-2.67
2023-01-12T20:55:52.130Z,-2.66
2023-01-12T20:58:25.242Z,-2.59
2023-01-12T21:00:57.933Z,-2.54
2023-01-12T21:03:30.723Z,-2.50
2023-01-12T21:06:03.209Z,-2.52
2023-01-12T21:08:36.533Z,-2.55
2023-01-12T21:11:09.149Z,-2.60
2023-01-12T21:13:42.083Z,-2.65
2023-01-12T21:16:18.279Z,-2.65
2023-01-12T21:18:52.169Z,-2.63
2023-01-12T21:21:24.707Z,-2.61
2023-01-12T21:23:57.362Z,-2.55
2023-01-12T21:26:29.846Z,-2.50
2023-01-12T21:29:02.616Z,-2.49
2023-01-12T21:31:35.335Z,-2.44
2023-01-12T21:34:07.731Z,-2.43
2023-01-12T21:36:41.066Z,-2.44
2023-01-12T21:39:13.690Z,-2.48
2023-01-12T21:42:04.102Z,-2.54
2023-01-12T21:44:36.799Z,-2.62
2023-01-12T21:47:09.291Z,-2.73
2023-01-12T21:49:42.179Z,-2.79
2023-01-12T21:52:14.607Z,-2.80
2023-01-12T21:54:47.077Z,-2.83
2023-01-12T21:57:19.482Z,-2.88
2023-01-12T21:59:52.027Z,-2.88
2023-01-12T22:02:25.697Z,-2.82
2023-01-12T22:04:58.120Z,-2.79
2023-01-12T22:07:30.623Z,-2.74
2023-01-12T22:10:22.096Z,-2.70
2023-01-12T22:12:57.114Z,-2.64
2023-01-12T22:15:30.724Z,-2.63
2023-01-12T22:18:03.252Z,-2.60
2023-01-12T22:20:35.820Z,-2.53
2023-01-12T22:23:09.105Z,-2.55
2023-01-12T22:25:41.674Z,-2.57
2023-01-12T22:28:14.685Z,-2.55
2023-01-12T22:30:47.253Z,-2.49
2023-01-12T22:33:19.863Z,-2.52
2023-01-12T22:35:52.515Z,-2.53
2023-01-12T22:38:24.919Z,-2.59
2023-01-12T22:40:58.058Z,-2.64
2023-01-12T22:43:30.482Z,-2.62
2023-01-12T22:46:03.014Z,-2.56
2023-01-12T22:48:36.360Z,-2.52
2023-01-12T22:51:09.081Z,-2.49
2023-01-12T22:53:42.081Z,-2.48
2023-01-12T22:56:15.612Z,-2.45
2023-01-12T22:58:51.264Z,-2.39
2023-01-12T23:01:26.758Z,-2.34
2023-01-12T23:03:59.355Z,-2.38
2023-01-12T23:06:31.860Z,-2.38
2023-01-12T23:09:05.106Z,-2.37
2023-01-12T23:11:37.706Z,-2.43
2023-01-12T23:14:10.704Z,-2.41
2023-01-12T23:16:43.245Z,-2.37
2023-01-12T23:19:15.956Z,-2.34
2023-01-12T23:21:48.947Z,-2.33
2023-01-12T23:24:21.863Z,-2.37
2023-01-12T23:26:54.314Z,-2.37
2023-01-12T23:29:26.950Z,-2.37
2023-01-12T23:31:59.479Z,-2.36
2023-01-12T23:34:31.955Z,-2.33
2023-01-12T23:37:04.852Z,-2.42
2023-01-12T23:39:38.863Z,-2.54
2023-01-12T23:42:11.515Z,-2.60
2023-01-12T23:44:45.465Z,-2.60
2023-01-12T23:47:19.471Z,-2.61
2023-01-12T23:49:52.223Z,-2.57
2023-01-12T23:52:25.128Z,-2.56
2023-01-12T23:54:58.601Z,-2.50
2023-01-12T23:57:31.497Z,-2.49
